Time;durP1;ratioP1;P1;durP2;ratioP2;P2;SDS_P1;SDS_P2;PMS_P1;PMS_P2;Temp;Humidity;BMP_temperature;BMP_pressure;BME280_temperature;BME280_humidity;BME280_pressure;Samples;Min_cycle;Max_cycle;Signal;HPM_P1;HPM_P2
2022/11/29 00:01:07;;;;;;;;;;;28.40;93.90;;;;;;5083777;28;19911;-50
2022/11/29 00:03:33;;;;;;;;;;;28.30;93.80;;;;;;5084071;28;19975;-50
2022/11/29 00:06:07;;;;;;;;;;;28.40;93.90;;;;;;5083783;28;19911;-53
2022/11/29 00:08:33;;;;;;;;;;;28.30;93.90;;;;;;5083828;28;19971;-53
2022/11/29 00:11:07;;;;;;;;;;;28.30;94.00;;;;;;5084057;28;20104;-52
2022/11/29 00:13:34;;;;;;;;;;;28.20;94.00;;;;;;5083703;28;20148;-54
2022/11/29 00:16:01;;;;;;;;;;;28.20;94.00;;;;;;5084029;28;19972;-50
2022/11/29 00:18:27;;;;;;;;;;;28.20;94.00;;;;;;5083750;28;19908;-55
2022/11/29 00:20:53;;;;;;;;;;;28.20;94.00;;;;;;5086305;28;19901;-55
2022/11/29 00:23:20;;;;;;;;;;;28.20;94.00;;;;;;5087921;28;24093;-55
2022/11/29 00:25:46;;;;;;;;;;;28.20;94.00;;;;;;5087223;28;19904;-60
2022/11/29 00:28:12;;;;;;;;;;;28.20;94.00;;;;;;5087614;28;19921;-55
2022/11/29 00:30:38;;;;;;;;;;;28.20;94.00;;;;;;5087319;28;19940;-54
2022/11/29 00:33:04;;;;;;;;;;;28.20;93.90;;;;;;5087522;28;20041;-53
2022/11/29 00:35:31;;;;;;;;;;;28.20;94.00;;;;;;5086962;28;19910;-51
2022/11/29 00:37:58;;;;;;;;;;;28.10;94.10;;;;;;5087151;28;19916;-53
2022/11/29 00:40:25;;;;;;;;;;;28.10;94.00;;;;;;5087199;28;20432;-54
2022/11/29 00:42:51;;;;;;;;;;;28.10;94.10;;;;;;5068980;28;19909;-50
2022/11/29 00:45:17;;;;;;;;;;;28.10;94.00;;;;;;5087230;28;19900;-53
2022/11/29 00:47:46;;;;;;;;;;;28.10;94.00;;;;;;5069353;28;19908;-51
2022/11/29 00:50:13;;;;;;;;;;;28.20;94.00;;;;;;5086655;28;24075;-53
2022/11/29 00:52:39;;;;;;;;;;;28.10;94.10;;;;;;5086714;28;19904;-55
2022/11/29 00:55:05;;;;;;;;;;;28.10;94.10;;;;;;5086956;28;19904;-54
2022/11/29 00:57:31;;;;;;;;;;;28.10;94.10;;;;;;5086873;28;24067;-53
2022/11/29 00:59:57;;;;;;;;;;;28.10;94.10;;;;;;5086841;28;20124;-56
2022/11/29 01:02:25;;;;;;;;;;;28.00;94.10;;;;;;5086344;28;19943;-55
2022/11/29 01:04:52;;;;;;;;;;;28.00;94.10;;;;;;5086360;28;20069;-54
2022/11/29 01:07:20;;;;;;;;;;;28.00;94.10;;;;;;5086474;28;19926;-52
2022/11/29 01:09:46;;;;;;;;;;;28.00;94.20;;;;;;5081842;28;19920;-52
2022/11/29 01:12:12;;;;;;;;;;;28.00;94.10;;;;;;5058050;28;19904;-56
2022/11/29 01:14:40;;;;;;;;;;;28.00;94.20;;;;;;5062388;28;19917;-51
2022/11/29 01:17:08;;;;;;;;;;;28.00;94.20;;;;;;5061791;28;19951;-54
2022/11/29 01:19:34;;;;;;;;;;;27.90;94.20;;;;;;5064038;28;19975;-54
2022/11/29 01:22:00;;;;;;;;;;;27.90;94.30;;;;;;5039388;28;19959;-48
2022/11/29 01:24:28;;;;;;;;;;;27.80;94.30;;;;;;5057039;28;19948;-47
2022/11/29 01:26:54;;;;;;;;;;;27.80;94.30;;;;;;5063200;28;19905;-53
2022/11/29 01:29:24;;;;;;;;;;;27.80;94.40;;;;;;5065706;28;19913;-59
2022/11/29 01:31:50;;;;;;;;;;;27.80;94.60;;;;;;5065239;28;20208;-50
2022/11/29 01:34:16;;;;;;;;;;;27.80;94.60;;;;;;5064623;28;19920;-56
2022/11/29 01:36:45;;;;;;;;;;;27.80;94.50;;;;;;5059822;28;19936;-58
2022/11/29 01:39:11;;;;;;;;;;;27.80;94.40;;;;;;5084283;28;19975;-52
2022/11/29 01:41:37;;;;;;;;;;;27.80;94.40;;;;;;5093947;28;20119;-51
2022/11/29 01:44:06;;;;;;;;;;;27.80;94.40;;;;;;5106136;28;19935;-50
2022/11/29 01:46:36;;;;;;;;;;;27.80;94.40;;;;;;5105880;28;19904;-55
2022/11/29 01:49:13;;;;;;;;;;;27.80;94.40;;;;;;5089658;28;20059;-49
2022/11/29 01:51:46;;;;;;;;;;;27.80;94.40;;;;;;5071949;28;19971;-53
2022/11/29 01:54:13;;;;;;;;;;;27.80;94.40;;;;;;5065826;28;19946;-54
2022/11/29 01:56:40;;;;;;;;;;;27.80;94.40;;;;;;5065451;28;19972;-54
2022/11/29 01:59:11;;;;;;;;;;;27.80;94.20;;;;;;5068736;28;20212;-54
2022/11/29 02:01:37;;;;;;;;;;;27.80;94.20;;;;;;5072337;28;19936;-56
2022/11/29 02:04:04;;;;;;;;;;;27.90;94.10;;;;;;5065097;28;19908;-61
2022/11/29 02:06:30;;;;;;;;;;;27.90;94.10;;;;;;5065355;28;19905;-53
2022/11/29 02:08:56;;;;;;;;;;;27.80;94.00;;;;;;5065001;28;19948;-53
2022/11/29 02:11:52;;;;;;;;;;;27.80;94.00;;;;;;5071316;28;20227;-55
2022/11/29 02:14:36;;;;;;;;;;;27.80;94.00;;;;;;5013845;28;19910;-53
2022/11/29 02:17:14;;;;;;;;;;;27.80;94.00;;;;;;5079372;28;19900;-54
2022/11/29 02:19:52;;;;;;;;;;;27.80;94.00;;;;;;5078256;28;24069;-52
2022/11/29 02:22:39;;;;;;;;;;;27.80;94.10;;;;;;5081189;28;19932;-53
2022/11/29 02:25:34;;;;;;;;;;;27.80;94.10;;;;;;5076121;28;19908;-57
2022/11/29 02:28:19;;;;;;;;;;;27.80;94.20;;;;;;5064816;28;19951;-54
2022/11/29 02:30:58;;;;;;;;;;;27.80;94.20;;;;;;5064344;28;20168;-56
2022/11/29 02:33:36;;;;;;;;;;;27.80;94.30;;;;;;5064769;28;19913;-56
2022/11/29 02:36:15;;;;;;;;;;;27.70;94.20;;;;;;5064530;28;24063;-53
2022/11/29 02:38:44;;;;;;;;;;;27.70;94.30;;;;;;5064371;28;19924;-64
2022/11/29 02:41:19;;;;;;;;;;;27.70;94.30;;;;;;5069031;28;24109;-54
2022/11/29 02:44:03;;;;;;;;;;;27.70;94.30;;;;;;5084048;28;20192;-53
2022/11/29 02:46:41;;;;;;;;;;;27.70;94.40;;;;;;5084766;28;19944;-52
2022/11/29 02:49:19;;;;;;;;;;;27.70;94.40;;;;;;5083647;28;20089;-54
2022/11/29 02:51:51;;;;;;;;;;;27.70;94.50;;;;;;5079193;28;20164;-53
2022/11/29 02:54:19;;;;;;;;;;;27.70;94.60;;;;;;5073914;28;19931;-60
2022/11/29 02:56:57;;;;;;;;;;;27.70;94.60;;;;;;5064572;28;20137;-53
2022/11/29 02:59:42;;;;;;;;;;;27.70;94.60;;;;;;5065000;28;19911;-56
2022/11/29 03:02:08;;;;;;;;;;;27.60;94.60;;;;;;5064833;28;19905;-55
2022/11/29 03:04:54;;;;;;;;;;;27.70;94.60;;;;;;5076040;28;19908;-52
2022/11/29 03:07:20;;;;;;;;;;;27.60;94.80;;;;;;5070669;28;19935;-55
2022/11/29 03:10:09;;;;;;;;;;;27.60;94.80;;;;;;5077803;28;19945;-53
2022/11/29 03:12:44;;;;;;;;;;;27.60;94.80;;;;;;5082202;28;24074;-55
2022/11/29 03:15:25;;;;;;;;;;;27.60;94.90;;;;;;5078394;28;24058;-54
2022/11/29 03:18:10;;;;;;;;;;;27.60;94.90;;;;;;5066218;28;19915;-53
2022/11/29 03:20:48;;;;;;;;;;;27.60;94.90;;;;;;5083078;28;19963;-56
2022/11/29 03:23:27;;;;;;;;;;;27.60;95.00;;;;;;5084178;28;19939;-61
2022/11/29 03:26:05;;;;;;;;;;;27.60;95.10;;;;;;5084353;28;19900;-57
2022/11/29 03:28:34;;;;;;;;;;;27.60;95.20;;;;;;5083912;28;20045;-56
2022/11/29 03:31:23;;;;;;;;;;;27.50;95.10;;;;;;5084477;28;19916;-58
2022/11/29 03:33:58;;;;;;;;;;;27.50;95.10;;;;;;5081947;28;19950;-52
2022/11/29 03:36:29;;;;;;;;;;;27.50;95.30;;;;;;5082314;28;19900;-59
2022/11/29 03:38:57;;;;;;;;;;;27.50;95.10;;;;;;5084485;28;19917;-55
2022/11/29 03:41:38;;;;;;;;;;;27.50;95.10;;;;;;5084145;28;19907;-52
2022/11/29 03:44:23;;;;;;;;;;;27.40;95.10;;;;;;5084559;28;19909;-56
2022/11/29 03:46:52;;;;;;;;;;;27.40;95.10;;;;;;5083904;28;19935;-53
2022/11/29 03:49:36;;;;;;;;;;;27.40;95.10;;;;;;5084141;28;19912;-53
2022/11/29 03:52:25;;;;;;;;;;;27.40;94.90;;;;;;5083821;28;19904;-55
2022/11/29 03:55:10;;;;;;;;;;;27.40;94.70;;;;;;5082584;28;20192;-56
2022/11/29 03:57:48;;;;;;;;;;;27.40;94.40;;;;;;5086752;28;19975;-55
2022/11/29 04:00:16;;;;;;;;;;;27.40;94.30;;;;;;5081496;28;20354;-53
2022/11/29 04:03:13;;;;;;;;;;;27.40;94.30;;;;;;5085400;28;19908;-54
2022/11/29 04:05:40;;;;;;;;;;;27.40;94.10;;;;;;5087657;28;19911;-56
2022/11/29 04:08:18;;;;;;;;;;;27.40;94.10;;;;;;5087584;28;19908;-54
2022/11/29 04:10:47;;;;;;;;;;;27.50;94.20;;;;;;5087482;28;19939;-57
2022/11/29 04:13:34;;;;;;;;;;;27.50;94.20;;;;;;5085682;28;19981;-56
2022/11/29 04:16:20;;;;;;;;;;;27.50;94.20;;;;;;5087176;28;19967;-52
2022/11/29 04:18:46;;;;;;;;;;;27.40;94.20;;;;;;5087537;28;19954;-53
2022/11/29 04:21:13;;;;;;;;;;;27.40;94.20;;;;;;5087392;28;19904;-55
2022/11/29 04:24:06;;;;;;;;;;;27.40;94.20;;;;;;5087441;28;19908;-58
2022/11/29 04:26:50;;;;;;;;;;;27.40;94.30;;;;;;5083358;28;19904;-53
2022/11/29 04:29:35;;;;;;;;;;;27.40;94.30;;;;;;5086811;28;19908;-58
2022/11/29 04:32:21;;;;;;;;;;;27.40;94.30;;;;;;5085505;28;20242;-52
2022/11/29 04:34:47;;;;;;;;;;;27.40;94.40;;;;;;5086282;28;19916;-53
2022/11/29 04:37:25;;;;;;;;;;;27.40;94.40;;;;;;5086749;28;19912;-54
2022/11/29 04:40:08;;;;;;;;;;;27.40;94.40;;;;;;5086752;28;25097;-58
2022/11/29 04:42:34;;;;;;;;;;;27.40;94.50;;;;;;5086737;28;20092;-59
2022/11/29 04:45:27;;;;;;;;;;;27.40;94.50;;;;;;5069234;28;19918;-60
2022/11/29 04:48:05;;;;;;;;;;;27.40;94.50;;;;;;5082601;28;20133;-56
2022/11/29 04:50:57;;;;;;;;;;;27.40;94.60;;;;;;5086924;28;19908;-54
2022/11/29 04:53:43;;;;;;;;;;;27.30;94.70;;;;;;5055216;28;20194;-55
2022/11/29 04:56:20;;;;;;;;;;;27.30;94.70;;;;;;5045393;28;20287;-54
2022/11/29 04:59:00;;;;;;;;;;;27.30;94.80;;;;;;5086747;28;19915;-54
2022/11/29 05:01:46;;;;;;;;;;;27.30;94.80;;;;;;5086718;28;19904;-59
2022/11/29 05:04:19;;;;;;;;;;;27.30;94.80;;;;;;5085414;28;19916;-54
2022/11/29 05:06:48;;;;;;;;;;;27.30;94.80;;;;;;5084363;28;19912;-52
2022/11/29 05:09:33;;;;;;;;;;;27.30;94.80;;;;;;5085326;28;19908;-55
2022/11/29 05:12:02;;;;;;;;;;;27.30;94.80;;;;;;5078515;28;19905;-56
2022/11/29 05:14:29;;;;;;;;;;;27.30;94.80;;;;;;5086401;28;20179;-54
2022/11/29 05:16:58;;;;;;;;;;;27.30;94.80;;;;;;5085663;28;19908;-55
2022/11/29 05:19:33;;;;;;;;;;;27.30;94.90;;;;;;5086236;28;19904;-62
2022/11/29 05:22:05;;;;;;;;;;;27.20;94.80;;;;;;5086228;28;19910;-54
2022/11/29 05:24:54;;;;;;;;;;;27.20;94.80;;;;;;5086428;28;20093;-55
2022/11/29 05:27:23;;;;;;;;;;;27.20;94.90;;;;;;5075402;28;19905;-56
2022/11/29 05:29:56;;;;;;;;;;;27.20;94.90;;;;;;5086161;28;19975;-57
2022/11/29 05:32:39;;;;;;;;;;;27.20;94.80;;;;;;5085723;28;24100;-55
2022/11/29 05:35:05;;;;;;;;;;;27.20;94.90;;;;;;5085405;28;19912;-55
2022/11/29 05:37:49;;;;;;;;;;;27.20;94.80;;;;;;5074932;28;19927;-58
2022/11/29 05:40:27;;;;;;;;;;;27.20;94.90;;;;;;5082097;28;19904;-60
2022/11/29 05:43:02;;;;;;;;;;;27.20;94.90;;;;;;5085918;28;19916;-55
2022/11/29 05:45:29;;;;;;;;;;;27.20;95.00;;;;;;5085620;28;19985;-55
2022/11/29 05:48:01;;;;;;;;;;;27.20;94.90;;;;;;5085414;28;19915;-52
2022/11/29 05:50:36;;;;;;;;;;;27.20;94.90;;;;;;5085050;28;19904;-56
2022/11/29 05:53:35;;;;;;;;;;;27.20;94.90;;;;;;5089469;28;19909;-59
2022/11/29 05:56:01;;;;;;;;;;;27.20;94.80;;;;;;5041810;28;19904;-57
2022/11/29 05:58:30;;;;;;;;;;;27.20;94.80;;;;;;5074255;28;19914;-56
2022/11/29 06:01:14;;;;;;;;;;;27.20;94.80;;;;;;5084870;28;19904;-58
2022/11/29 06:03:46;;;;;;;;;;;27.20;94.80;;;;;;5084632;28;19912;-52
2022/11/29 06:06:32;;;;;;;;;;;27.20;94.80;;;;;;5085257;28;19920;-52
2022/11/29 06:09:05;;;;;;;;;;;27.10;94.80;;;;;;5085018;28;19908;-53
2022/11/29 06:11:34;;;;;;;;;;;27.10;94.80;;;;;;5085313;28;19908;-57
2022/11/29 06:14:06;;;;;;;;;;;27.10;94.90;;;;;;5085276;28;19908;-52
2022/11/29 06:16:41;;;;;;;;;;;27.10;94.90;;;;;;5084205;28;24061;-52
2022/11/29 06:19:07;;;;;;;;;;;27.10;94.90;;;;;;5084829;28;20219;-54
2022/11/29 06:21:44;;;;;;;;;;;27.10;94.90;;;;;;5084752;28;20097;-58
2022/11/29 06:24:10;;;;;;;;;;;27.00;94.90;;;;;;5085372;28;19909;-55
2022/11/29 06:26:51;;;;;;;;;;;27.00;95.00;;;;;;5084802;28;24121;-55
2022/11/29 06:29:27;;;;;;;;;;;27.00;95.00;;;;;;5085183;28;19908;-55
2022/11/29 06:32:13;;;;;;;;;;;27.00;95.00;;;;;;5064821;28;19939;-55
2022/11/29 06:34:44;;;;;;;;;;;27.00;95.00;;;;;;5065063;28;19947;-55
2022/11/29 06:37:26;;;;;;;;;;;27.00;95.00;;;;;;5064357;28;20019;-54
2022/11/29 06:39:53;;;;;;;;;;;27.00;95.10;;;;;;5064696;28;19937;-54
2022/11/29 06:42:19;;;;;;;;;;;27.00;95.10;;;;;;5064566;28;19904;-52
2022/11/29 06:44:45;;;;;;;;;;;27.00;95.00;;;;;;5064468;28;19909;-55
2022/11/29 06:47:36;;;;;;;;;;;27.00;95.00;;;;;;5064656;28;19940;-56
2022/11/29 06:50:07;;;;;;;;;;;27.00;95.10;;;;;;5064327;28;19913;-58
2022/11/29 06:52:49;;;;;;;;;;;27.00;95.10;;;;;;5064579;28;19911;-52
2022/11/29 06:55:33;;;;;;;;;;;27.00;95.00;;;;;;5064149;28;19958;-56
2022/11/29 06:58:14;;;;;;;;;;;27.00;95.10;;;;;;5064306;28;19913;-56
2022/11/29 07:00:54;;;;;;;;;;;27.00;95.10;;;;;;5064206;28;20097;-51
2022/11/29 07:03:26;;;;;;;;;;;27.00;95.00;;;;;;5064414;28;19912;-53
2022/11/29 07:05:52;;;;;;;;;;;26.90;95.00;;;;;;5064426;28;19939;-51
2022/11/29 07:08:20;;;;;;;;;;;27.00;95.10;;;;;;5064130;28;19944;-50
2022/11/29 07:10:48;;;;;;;;;;;26.90;95.10;;;;;;5063746;28;19908;-52
2022/11/29 07:13:15;;;;;;;;;;;26.90;95.00;;;;;;5064073;28;20120;-52
2022/11/29 07:15:54;;;;;;;;;;;26.90;94.90;;;;;;5063844;28;19943;-54
2022/11/29 07:18:38;;;;;;;;;;;26.90;94.90;;;;;;5064382;28;19944;-54
2022/11/29 07:21:10;;;;;;;;;;;26.90;95.00;;;;;;5064041;28;20130;-52
2022/11/29 07:23:48;;;;;;;;;;;26.90;95.00;;;;;;5064114;28;19909;-56
2022/11/29 07:26:17;;;;;;;;;;;26.90;94.90;;;;;;5063756;28;20148;-51
2022/11/29 07:28:46;;;;;;;;;;;26.90;95.00;;;;;;5064035;28;19955;-54
2022/11/29 07:31:21;;;;;;;;;;;26.90;95.10;;;;;;5063700;28;19950;-53
2022/11/29 07:33:57;;;;;;;;;;;26.80;95.00;;;;;;5063937;28;24076;-53
2022/11/29 07:36:42;;;;;;;;;;;26.80;95.00;;;;;;5063746;28;19904;-59
2022/11/29 07:39:18;;;;;;;;;;;26.80;95.10;;;;;;5064036;28;19940;-53
2022/11/29 07:41:44;;;;;;;;;;;26.80;94.90;;;;;;5063560;28;19912;-54
2022/11/29 07:44:13;;;;;;;;;;;26.80;94.90;;;;;;5063899;28;19928;-54
2022/11/29 07:46:39;;;;;;;;;;;26.80;94.90;;;;;;5063754;28;19905;-54
2022/11/29 07:49:05;;;;;;;;;;;26.80;94.80;;;;;;5063930;28;19911;-52
2022/11/29 07:51:31;;;;;;;;;;;26.80;94.70;;;;;;5063701;28;19915;-54
2022/11/29 07:53:57;;;;;;;;;;;26.80;94.70;;;;;;5063888;28;19909;-54
2022/11/29 07:56:23;;;;;;;;;;;26.80;94.40;;;;;;5063593;28;19905;-56
2022/11/29 07:58:49;;;;;;;;;;;26.80;94.40;;;;;;5063949;28;20185;-55
2022/11/29 08:01:16;;;;;;;;;;;26.80;94.20;;;;;;5063527;28;19907;-56
2022/11/29 08:03:42;;;;;;;;;;;26.80;94.30;;;;;;5063535;28;19960;-53
2022/11/29 08:06:08;;;;;;;;;;;26.80;94.10;;;;;;5063442;28;19904;-56
2022/11/29 08:08:35;;;;;;;;;;;26.80;93.90;;;;;;5063818;28;20097;-61
2022/11/29 08:11:07;;;;;;;;;;;26.80;94.00;;;;;;5063313;28;19950;-58
2022/11/29 08:13:33;;;;;;;;;;;26.80;93.90;;;;;;5063819;28;24051;-53
2022/11/29 08:15:59;;;;;;;;;;;26.80;93.70;;;;;;5063499;28;19905;-57
2022/11/29 08:18:25;;;;;;;;;;;26.70;93.60;;;;;;5063350;28;20180;-53
2022/11/29 08:20:51;;;;;;;;;;;26.70;93.50;;;;;;5063405;28;19904;-58
2022/11/29 08:23:17;;;;;;;;;;;26.70;93.70;;;;;;5063313;28;19968;-56
2022/11/29 08:25:44;;;;;;;;;;;26.70;93.90;;;;;;5062934;28;20089;-57
2022/11/29 08:28:10;;;;;;;;;;;26.70;93.90;;;;;;5063248;28;20235;-58
2022/11/29 08:30:37;;;;;;;;;;;26.70;94.00;;;;;;5063071;28;19988;-58
2022/11/29 08:33:03;;;;;;;;;;;26.70;94.10;;;;;;5063239;28;19912;-58
2022/11/29 08:35:29;;;;;;;;;;;26.80;94.10;;;;;;5063226;28;19904;-60
2022/11/29 08:37:55;;;;;;;;;;;26.80;94.10;;;;;;5063030;28;19917;-59
2022/11/29 08:40:22;;;;;;;;;;;26.80;94.20;;;;;;5063373;28;19905;-56
2022/11/29 08:42:49;;;;;;;;;;;26.80;94.20;;;;;;5066766;28;19908;-60
2022/11/29 08:45:15;;;;;;;;;;;26.80;94.30;;;;;;5067059;28;19905;-56
2022/11/29 08:47:41;;;;;;;;;;;26.80;94.30;;;;;;5066759;28;20084;-56
2022/11/29 08:50:11;;;;;;;;;;;26.90;94.40;;;;;;5066441;28;19904;-56
2022/11/29 08:55:36;;;;;;;;;;;26.90;94.40;;;;;;5066630;28;19942;-58
2022/11/29 08:58:04;;;;;;;;;;;26.80;94.40;;;;;;5066833;28;20121;-56
2022/11/29 09:00:30;;;;;;;;;;;26.90;94.40;;;;;;5066446;28;19905;-52
2022/11/29 09:03:58;;;;;;;;;;;26.90;94.40;;;;;;5066612;28;19904;-60
2022/11/29 09:05:43;;;;;;;;;;;26.90;94.40;;;;;;5065972;28;19908;-57
2022/11/29 09:08:09;;;;;;;;;;;26.90;94.40;;;;;;5066549;28;19916;-56
2022/11/29 09:10:37;;;;;;;;;;;26.90;94.40;;;;;;5066233;28;19916;-58
2022/11/29 09:13:03;;;;;;;;;;;26.90;94.50;;;;;;5066215;28;24053;-58
2022/11/29 09:15:29;;;;;;;;;;;26.80;94.40;;;;;;5066248;28;19916;-56
2022/11/29 09:17:55;;;;;;;;;;;26.90;94.50;;;;;;5066028;28;20104;-54
2022/11/29 09:20:21;;;;;;;;;;;26.80;94.50;;;;;;5066299;28;19900;-54
2022/11/29 09:22:47;;;;;;;;;;;26.80;94.60;;;;;;5066513;28;24101;-55
2022/11/29 09:25:14;;;;;;;;;;;26.80;94.60;;;;;;5066381;28;19959;-55
2022/11/29 09:27:40;;;;;;;;;;;26.70;94.70;;;;;;5066174;28;19920;-54
2022/11/29 09:30:07;;;;;;;;;;;26.70;94.80;;;;;;5065788;28;19909;-57
2022/11/29 09:32:34;;;;;;;;;;;26.60;95.00;;;;;;5065902;28;19901;-51
2022/11/29 09:35:00;;;;;;;;;;;26.60;94.80;;;;;;5065849;28;19940;-56
2022/11/29 09:37:28;;;;;;;;;;;26.60;94.90;;;;;;5065402;28;20251;-54
2022/11/29 09:39:54;;;;;;;;;;;26.60;94.90;;;;;;5065987;28;19912;-54
2022/11/29 09:42:30;;;;;;;;;;;26.60;95.00;;;;;;5065744;28;19905;-60
2022/11/29 09:45:05;;;;;;;;;;;26.50;94.90;;;;;;5065868;28;19947;-54
2022/11/29 09:47:35;;;;;;;;;;;26.50;95.00;;;;;;5065738;28;19904;-55
2022/11/29 09:50:16;;;;;;;;;;;26.50;95.00;;;;;;5065400;28;19909;-54
2022/11/29 09:53:12;;;;;;;;;;;26.50;95.10;;;;;;5065369;28;20093;-55
2022/11/29 09:55:48;;;;;;;;;;;26.50;95.20;;;;;;5052373;28;20093;-61
2022/11/29 09:58:19;;;;;;;;;;;26.40;95.20;;;;;;5065554;28;20193;-56
2022/11/29 10:00:51;;;;;;;;;;;26.40;95.20;;;;;;5065197;28;19917;-55
2022/11/29 10:03:24;;;;;;;;;;;26.40;95.20;;;;;;5065416;28;19909;-56
2022/11/29 10:05:52;;;;;;;;;;;26.40;95.30;;;;;;5065046;28;20208;-57
2022/11/29 10:08:18;;;;;;;;;;;26.40;95.30;;;;;;5065224;28;24082;-56
2022/11/29 10:10:48;;;;;;;;;;;26.40;95.30;;;;;;5065024;28;19911;-56
2022/11/29 10:13:14;;;;;;;;;;;26.30;95.30;;;;;;5065052;28;19980;-54
2022/11/29 10:15:42;;;;;;;;;;;26.30;95.50;;;;;;5065057;28;19944;-54
2022/11/29 10:18:20;;;;;;;;;;;26.40;95.40;;;;;;5065339;28;19975;-57
2022/11/29 10:20:48;;;;;;;;;;;26.30;95.50;;;;;;5065026;28;19924;-57
2022/11/29 10:23:33;;;;;;;;;;;26.30;95.40;;;;;;5065156;28;20248;-55
2022/11/29 10:25:59;;;;;;;;;;;26.30;95.40;;;;;;5064769;28;19905;-57
2022/11/29 10:28:29;;;;;;;;;;;26.30;95.40;;;;;;5065151;28;19916;-61
2022/11/29 10:30:57;;;;;;;;;;;26.30;95.40;;;;;;5064507;28;19930;-55
2022/11/29 10:33:28;;;;;;;;;;;26.40;95.40;;;;;;5065115;28;19947;-55
2022/11/29 10:35:55;;;;;;;;;;;26.30;95.40;;;;;;5064865;28;20011;-54
2022/11/29 10:38:23;;;;;;;;;;;26.40;95.50;;;;;;5064910;28;19924;-51
2022/11/29 10:41:09;;;;;;;;;;;26.30;95.50;;;;;;5064724;28;19911;-52
2022/11/29 10:43:36;;;;;;;;;;;26.30;95.50;;;;;;5064573;28;19991;-58
2022/11/29 10:46:02;;;;;;;;;;;26.20;95.60;;;;;;5064510;28;19947;-54
2022/11/29 10:48:32;;;;;;;;;;;26.20;95.70;;;;;;5064714;28;19909;-57
2022/11/29 10:50:59;;;;;;;;;;;26.20;95.90;;;;;;5084255;28;20238;-54
2022/11/29 10:53:35;;;;;;;;;;;26.20;95.80;;;;;;5084686;28;19909;-54
2022/11/29 10:56:06;;;;;;;;;;;26.30;95.70;;;;;;5084422;28;20092;-54
2022/11/29 10:58:32;;;;;;;;;;;26.30;95.70;;;;;;5084569;28;19915;-55
2022/11/29 11:01:00;;;;;;;;;;;26.30;95.70;;;;;;5084816;28;19904;-53
2022/11/29 11:03:28;;;;;;;;;;;26.30;95.60;;;;;;5084044;28;19905;-54
2022/11/29 11:05:59;;;;;;;;;;;26.30;95.60;;;;;;5084177;28;19905;-57
2022/11/29 11:08:25;;;;;;;;;;;26.30;95.60;;;;;;5084645;28;19908;-52
2022/11/29 11:10:55;;;;;;;;;;;26.40;95.60;;;;;;5084195;28;19915;-59
2022/11/29 11:13:23;;;;;;;;;;;26.30;95.60;;;;;;5084535;28;19971;-58
2022/11/29 11:15:54;;;;;;;;;;;26.40;95.60;;;;;;5084231;28;24064;-55
2022/11/29 11:18:22;;;;;;;;;;;26.30;95.60;;;;;;5084191;28;19908;-55
2022/11/29 11:20:53;;;;;;;;;;;26.40;95.60;;;;;;5084233;28;19936;-54
2022/11/29 11:23:26;;;;;;;;;;;26.30;95.50;;;;;;5084433;28;19931;-53
2022/11/29 11:26:00;;;;;;;;;;;26.40;95.60;;;;;;5084096;28;19908;-51
2022/11/29 11:28:32;;;;;;;;;;;26.40;95.50;;;;;;5084286;28;19975;-53
2022/11/29 11:31:03;;;;;;;;;;;26.40;95.30;;;;;;5083438;28;19908;-55
2022/11/29 11:33:32;;;;;;;;;;;26.40;95.30;;;;;;5082429;28;19908;-54
2022/11/29 11:36:04;;;;;;;;;;;26.40;95.20;;;;;;5082220;28;20018;-55
2022/11/29 11:38:30;;;;;;;;;;;26.40;95.00;;;;;;5082554;28;19923;-58
2022/11/29 11:41:01;;;;;;;;;;;26.40;95.00;;;;;;5082513;28;19904;-54
2022/11/29 11:43:28;;;;;;;;;;;26.50;95.00;;;;;;5082746;28;20022;-55
2022/11/29 11:45:54;;;;;;;;;;;26.50;94.80;;;;;;5082536;28;19904;-53
2022/11/29 11:48:21;;;;;;;;;;;26.50;95.10;;;;;;5083801;28;20124;-55
2022/11/29 11:50:55;;;;;;;;;;;26.50;94.80;;;;;;5083712;28;19908;-52
2022/11/29 11:53:22;;;;;;;;;;;26.50;94.80;;;;;;5084112;28;19922;-52
2022/11/29 11:55:54;;;;;;;;;;;26.50;94.90;;;;;;5084023;28;19911;-52
2022/11/29 11:58:26;;;;;;;;;;;26.50;94.80;;;;;;5083965;28;20236;-57
2022/11/29 12:00:52;;;;;;;;;;;26.50;94.90;;;;;;5083874;28;19905;-51
2022/11/29 12:03:34;;;;;;;;;;;26.50;94.80;;;;;;5083991;28;19908;-51
2022/11/29 12:06:12;;;;;;;;;;;26.50;94.80;;;;;;5083752;28;24071;-55
2022/11/29 12:08:38;;;;;;;;;;;26.50;94.90;;;;;;5084217;28;19908;-53
2022/11/29 12:11:06;;;;;;;;;;;26.50;95.00;;;;;;5083674;28;19949;-56
2022/11/29 12:13:34;;;;;;;;;;;26.50;95.00;;;;;;5083726;28;19976;-58
2022/11/29 12:16:04;;;;;;;;;;;26.50;94.90;;;;;;5084753;28;19908;-59
2022/11/29 12:18:43;;;;;;;;;;;26.50;95.00;;;;;;5088010;28;20192;-52
2022/11/29 12:21:13;;;;;;;;;;;26.50;95.00;;;;;;5087445;28;20203;-51
2022/11/29 12:23:44;;;;;;;;;;;26.60;95.10;;;;;;5087722;28;19916;-54
2022/11/29 12:26:10;;;;;;;;;;;26.60;95.00;;;;;;5087406;28;24111;-52
2022/11/29 12:28:38;;;;;;;;;;;26.60;94.90;;;;;;5088165;28;19987;-53
2022/11/29 12:31:23;;;;;;;;;;;26.60;95.00;;;;;;5087753;28;19934;-53
2022/11/29 12:33:52;;;;;;;;;;;26.60;95.00;;;;;;5087188;28;19909;-57
2022/11/29 12:36:36;;;;;;;;;;;26.60;95.00;;;;;;5087265;28;19926;-54
2022/11/29 12:39:02;;;;;;;;;;;26.60;95.10;;;;;;5088248;28;20124;-56
2022/11/29 12:41:33;;;;;;;;;;;26.60;95.10;;;;;;5087202;28;20133;-62
2022/11/29 12:44:16;;;;;;;;;;;26.60;95.00;;;;;;5087603;28;19915;-54
2022/11/29 12:46:46;;;;;;;;;;;26.70;95.10;;;;;;5087475;28;20153;-51
2022/11/29 12:49:25;;;;;;;;;;;26.70;95.00;;;;;;5087396;28;19908;-54
2022/11/29 12:52:03;;;;;;;;;;;26.70;94.90;;;;;;5086703;28;19909;-52
2022/11/29 12:54:48;;;;;;;;;;;26.70;94.80;;;;;;5087343;28;19954;-52
2022/11/29 12:57:23;;;;;;;;;;;26.70;94.90;;;;;;5086643;28;19965;-54
2022/11/29 13:00:06;;;;;;;;;;;26.70;94.90;;;;;;5086590;28;19983;-54
2022/11/29 13:02:50;;;;;;;;;;;26.70;94.90;;;;;;5086951;28;20188;-57
2022/11/29 13:05:39;;;;;;;;;;;26.70;94.90;;;;;;5086563;28;19904;-52
2022/11/29 13:08:08;;;;;;;;;;;26.70;94.80;;;;;;5086536;28;19954;-53
2022/11/29 13:10:37;;;;;;;;;;;26.70;94.90;;;;;;5086370;28;20239;-51
2022/11/29 13:13:26;;;;;;;;;;;26.70;94.80;;;;;;5053783;28;19909;-55
2022/11/29 13:16:12;;;;;;;;;;;26.70;94.70;;;;;;5036117;28;19927;-51
2022/11/29 13:18:49;;;;;;;;;;;26.70;94.70;;;;;;5046062;28;19969;-53
2022/11/29 13:21:47;;;;;;;;;;;26.70;94.80;;;;;;5046510;28;19951;-52
2022/11/29 13:24:17;;;;;;;;;;;26.70;94.90;;;;;;4975817;28;24077;-50
2022/11/29 13:26:44;;;;;;;;;;;26.70;94.90;;;;;;5045604;28;19988;-57
2022/11/29 13:29:17;;;;;;;;;;;26.70;95.00;;;;;;5046809;28;19945;-52
2022/11/29 13:31:44;;;;;;;;;;;26.70;95.00;;;;;;5046407;28;20101;-52
2022/11/29 13:34:30;;;;;;;;;;;26.70;95.10;;;;;;5046345;28;19909;-51
2022/11/29 13:36:56;;;;;;;;;;;26.80;95.10;;;;;;5070084;28;19908;-56
2022/11/29 13:39:43;;;;;;;;;;;26.80;95.00;;;;;;5067831;28;19908;-60
2022/11/29 13:42:09;;;;;;;;;;;26.80;95.00;;;;;;5086168;28;19951;-56
2022/11/29 13:44:54;;;;;;;;;;;26.90;95.00;;;;;;5086401;28;25130;-59
2022/11/29 13:47:20;;;;;;;;;;;26.90;95.00;;;;;;5085953;28;19904;-56
2022/11/29 13:49:55;;;;;;;;;;;26.90;95.00;;;;;;5085497;28;24099;-52
2022/11/29 13:52:31;;;;;;;;;;;26.90;95.20;;;;;;5085603;28;19908;-56
2022/11/29 13:55:17;;;;;;;;;;;26.90;95.20;;;;;;5085706;28;19910;-53
2022/11/29 13:57:53;;;;;;;;;;;26.90;95.20;;;;;;5085597;28;20092;-56
2022/11/29 14:00:34;;;;;;;;;;;26.90;95.30;;;;;;5085279;28;19942;-51
2022/11/29 14:03:19;;;;;;;;;;;26.90;95.30;;;;;;5085594;28;24085;-51
2022/11/29 14:06:02;;;;;;;;;;;26.90;95.40;;;;;;5067892;28;19905;-58
2022/11/29 14:08:32;;;;;;;;;;;26.90;95.40;;;;;;5085554;28;20177;-53
2022/11/29 14:11:01;;;;;;;;;;;26.90;95.50;;;;;;5084968;28;19975;-53
2022/11/29 14:13:31;;;;;;;;;;;26.90;95.50;;;;;;5085679;28;19908;-58
2022/11/29 14:15:58;;;;;;;;;;;26.90;95.40;;;;;;5085391;28;19905;-52
2022/11/29 14:18:36;;;;;;;;;;;26.90;95.40;;;;;;5085155;28;20089;-53
2022/11/29 14:21:03;;;;;;;;;;;26.90;95.20;;;;;;5085330;28;19908;-53
2022/11/29 14:23:31;;;;;;;;;;;27.00;95.10;;;;;;5085239;28;19908;-52
2022/11/29 14:25:57;;;;;;;;;;;27.00;95.10;;;;;;5084909;28;20231;-51
2022/11/29 14:28:23;;;;;;;;;;;27.00;95.10;;;;;;5074551;28;19916;-55
2022/11/29 14:30:51;;;;;;;;;;;27.00;95.10;;;;;;5064893;28;19905;-55
2022/11/29 14:33:37;;;;;;;;;;;27.00;95.10;;;;;;5066477;28;19915;-52
2022/11/29 14:36:03;;;;;;;;;;;27.00;95.10;;;;;;5084289;28;19905;-57
2022/11/29 14:38:52;;;;;;;;;;;27.10;95.00;;;;;;5072115;28;19967;-55
2022/11/29 14:41:36;;;;;;;;;;;27.10;95.00;;;;;;5029203;28;19970;-56
2022/11/29 14:44:05;;;;;;;;;;;27.10;95.00;;;;;;5073256;28;19944;-53
2022/11/29 14:46:32;;;;;;;;;;;27.10;95.10;;;;;;5064734;28;20189;-53
2022/11/29 14:48:59;;;;;;;;;;;27.10;95.00;;;;;;5085053;28;19908;-51
2022/11/29 14:51:29;;;;;;;;;;;27.10;95.00;;;;;;5084631;28;19970;-52